sensor_id;sensor_type;location;lat;lon;timestamp;P1;durP1;ratioP1;P2;durP2;ratioP2
75898;SDS011;64576;50.460;4.866;2023-05-23T00:01:13;86.72;;;33.30;;
75898;SDS011;64576;50.460;4.866;2023-05-23T00:03:41;81.47;;;32.72;;
75898;SDS011;64576;50.460;4.866;2023-05-23T00:06:06;84.40;;;30.48;;
75898;SDS011;64576;50.460;4.866;2023-05-23T00:08:32;72.05;;;32.53;;
75898;SDS011;64576;50.460;4.866;2023-05-23T00:10:57;88.40;;;33.63;;
75898;SDS011;64576;50.460;4.866;2023-05-23T00:13:22;86.68;;;33.47;;
75898;SDS011;64576;50.460;4.866;2023-05-23T00:15:48;91.28;;;34.20;;
75898;SDS011;64576;50.460;4.866;2023-05-23T00:18:13;85.32;;;34.97;;
75898;SDS011;64576;50.460;4.866;2023-05-23T00:20:40;89.13;;;35.75;;
75898;SDS011;64576;50.460;4.866;2023-05-23T00:23:10;85.78;;;32.47;;
75898;SDS011;64576;50.460;4.866;2023-05-23T00:25:42;88.63;;;34.10;;
75898;SDS011;64576;50.460;4.866;2023-05-23T00:28:12;89.20;;;34.08;;
75898;SDS011;64576;50.460;4.866;2023-05-23T00:30:38;94.75;;;36.03;;
75898;SDS011;64576;50.460;4.866;2023-05-23T00:33:03;98.68;;;36.58;;
75898;SDS011;64576;50.460;4.866;2023-05-23T00:35:28;90.07;;;33.55;;
75898;SDS011;64576;50.460;4.866;2023-05-23T00:37:54;86.40;;;34.50;;
75898;SDS011;64576;50.460;4.866;2023-05-23T00:40:20;90.43;;;35.13;;
75898;SDS011;64576;50.460;4.866;2023-05-23T00:42:46;103.55;;;37.05;;
75898;SDS011;64576;50.460;4.866;2023-05-23T00:45:12;99.70;;;34.85;;
75898;SDS011;64576;50.460;4.866;2023-05-23T00:47:38;89.45;;;35.47;;
75898;SDS011;64576;50.460;4.866;2023-05-23T00:50:06;96.70;;;32.60;;
75898;SDS011;64576;50.460;4.866;2023-05-23T00:52:32;75.45;;;33.03;;
75898;SDS011;64576;50.460;4.866;2023-05-23T00:54:58;88.75;;;36.92;;
75898;SDS011;64576;50.460;4.866;2023-05-23T00:57:23;101.22;;;37.38;;
75898;SDS011;64576;50.460;4.866;2023-05-23T00:59:49;94.53;;;36.78;;
75898;SDS011;64576;50.460;4.866;2023-05-23T01:02:15;90.35;;;34.40;;
75898;SDS011;64576;50.460;4.866;2023-05-23T01:04:40;111.45;;;38.67;;
75898;SDS011;64576;50.460;4.866;2023-05-23T01:07:06;103.93;;;36.92;;
75898;SDS011;64576;50.460;4.866;2023-05-23T01:09:32;99.07;;;35.72;;
75898;SDS011;64576;50.460;4.866;2023-05-23T01:12:00;118.30;;;39.88;;
75898;SDS011;64576;50.460;4.866;2023-05-23T01:14:41;116.95;;;38.90;;
75898;SDS011;64576;50.460;4.866;2023-05-23T01:17:13;120.40;;;40.05;;
75898;SDS011;64576;50.460;4.866;2023-05-23T01:19:54;142.10;;;41.67;;
75898;SDS011;64576;50.460;4.866;2023-05-23T01:28:03;133.63;;;38.67;;
75898;SDS011;64576;50.460;4.866;2023-05-23T01:30:31;129.45;;;40.38;;
75898;SDS011;64576;50.460;4.866;2023-05-23T01:33:00;138.75;;;39.58;;
75898;SDS011;64576;50.460;4.866;2023-05-23T01:35:27;130.77;;;44.60;;
75898;SDS011;64576;50.460;4.866;2023-05-23T01:37:53;134.02;;;42.67;;
75898;SDS011;64576;50.460;4.866;2023-05-23T01:40:19;127.45;;;38.47;;
75898;SDS011;64576;50.460;4.866;2023-05-23T01:42:46;133.52;;;40.33;;
75898;SDS011;64576;50.460;4.866;2023-05-23T01:45:12;115.07;;;40.28;;
75898;SDS011;64576;50.460;4.866;2023-05-23T01:47:40;135.73;;;43.40;;
75898;SDS011;64576;50.460;4.866;2023-05-23T01:50:07;128.65;;;42.25;;
75898;SDS011;64576;50.460;4.866;2023-05-23T01:52:34;117.68;;;40.72;;
75898;SDS011;64576;50.460;4.866;2023-05-23T01:54:59;123.32;;;39.97;;
75898;SDS011;64576;50.460;4.866;2023-05-23T01:57:28;119.05;;;37.40;;
75898;SDS011;64576;50.460;4.866;2023-05-23T01:59:54;129.30;;;41.33;;
75898;SDS011;64576;50.460;4.866;2023-05-23T02:02:20;123.65;;;40.20;;
75898;SDS011;64576;50.460;4.866;2023-05-23T02:04:47;122.22;;;39.30;;
75898;SDS011;64576;50.460;4.866;2023-05-23T02:07:13;120.97;;;39.85;;
75898;SDS011;64576;50.460;4.866;2023-05-23T02:09:38;115.60;;;39.97;;
75898;SDS011;64576;50.460;4.866;2023-05-23T02:12:04;101.57;;;37.20;;
75898;SDS011;64576;50.460;4.866;2023-05-23T02:14:29;93.85;;;36.80;;
75898;SDS011;64576;50.460;4.866;2023-05-23T02:16:55;100.35;;;37.00;;
75898;SDS011;64576;50.460;4.866;2023-05-23T02:19:20;88.60;;;36.72;;
75898;SDS011;64576;50.460;4.866;2023-05-23T02:21:45;87.38;;;34.30;;
75898;SDS011;64576;50.460;4.866;2023-05-23T02:24:11;98.63;;;35.58;;
75898;SDS011;64576;50.460;4.866;2023-05-23T02:26:36;86.32;;;32.15;;
75898;SDS011;64576;50.460;4.866;2023-05-23T02:29:02;96.43;;;35.78;;
75898;SDS011;64576;50.460;4.866;2023-05-23T02:31:27;84.18;;;35.08;;
75898;SDS011;64576;50.460;4.866;2023-05-23T02:33:52;77.18;;;29.95;;
75898;SDS011;64576;50.460;4.866;2023-05-23T02:36:18;75.50;;;30.95;;
75898;SDS011;64576;50.460;4.866;2023-05-23T02:38:43;67.40;;;27.23;;
75898;SDS011;64576;50.460;4.866;2023-05-23T02:41:09;67.93;;;27.02;;
75898;SDS011;64576;50.460;4.866;2023-05-23T02:43:34;70.05;;;27.58;;
75898;SDS011;64576;50.460;4.866;2023-05-23T02:46:00;72.47;;;27.50;;
75898;SDS011;64576;50.460;4.866;2023-05-23T02:48:25;68.70;;;27.92;;
75898;SDS011;64576;50.460;4.866;2023-05-23T02:50:50;73.72;;;28.65;;
75898;SDS011;64576;50.460;4.866;2023-05-23T02:53:16;64.05;;;25.90;;
75898;SDS011;64576;50.460;4.866;2023-05-23T02:55:42;66.30;;;27.98;;
75898;SDS011;64576;50.460;4.866;2023-05-23T02:58:07;70.57;;;27.52;;
75898;SDS011;64576;50.460;4.866;2023-05-23T03:00:33;68.07;;;26.80;;
75898;SDS011;64576;50.460;4.866;2023-05-23T03:02:58;64.88;;;26.40;;
75898;SDS011;64576;50.460;4.866;2023-05-23T03:05:23;60.97;;;25.13;;
75898;SDS011;64576;50.460;4.866;2023-05-23T03:07:49;70.35;;;27.63;;
75898;SDS011;64576;50.460;4.866;2023-05-23T03:10:16;71.18;;;29.55;;
75898;SDS011;64576;50.460;4.866;2023-05-23T03:12:41;72.93;;;29.27;;
75898;SDS011;64576;50.460;4.866;2023-05-23T03:15:07;67.30;;;28.73;;
75898;SDS011;64576;50.460;4.866;2023-05-23T03:17:33;61.08;;;26.45;;
75898;SDS011;64576;50.460;4.866;2023-05-23T03:19:59;61.20;;;24.83;;
75898;SDS011;64576;50.460;4.866;2023-05-23T03:22:24;65.68;;;26.23;;
75898;SDS011;64576;50.460;4.866;2023-05-23T03:24:50;65.90;;;26.90;;
75898;SDS011;64576;50.460;4.866;2023-05-23T03:27:15;61.42;;;25.13;;
75898;SDS011;64576;50.460;4.866;2023-05-23T03:29:40;69.97;;;29.27;;
75898;SDS011;64576;50.460;4.866;2023-05-23T03:32:06;54.90;;;24.60;;
75898;SDS011;64576;50.460;4.866;2023-05-23T03:34:31;68.25;;;24.27;;
75898;SDS011;64576;50.460;4.866;2023-05-23T03:36:57;68.63;;;28.00;;
75898;SDS011;64576;50.460;4.866;2023-05-23T03:39:23;56.25;;;22.45;;
75898;SDS011;64576;50.460;4.866;2023-05-23T03:41:49;63.92;;;26.98;;
75898;SDS011;64576;50.460;4.866;2023-05-23T03:44:15;53.03;;;26.00;;
75898;SDS011;64576;50.460;4.866;2023-05-23T03:46:40;58.33;;;22.15;;
75898;SDS011;64576;50.460;4.866;2023-05-23T03:49:05;56.22;;;25.63;;
75898;SDS011;64576;50.460;4.866;2023-05-23T03:51:31;57.13;;;25.20;;
75898;SDS011;64576;50.460;4.866;2023-05-23T03:53:56;57.42;;;25.05;;
75898;SDS011;64576;50.460;4.866;2023-05-23T03:56:22;60.72;;;22.98;;
75898;SDS011;64576;50.460;4.866;2023-05-23T03:58:47;61.17;;;24.08;;
75898;SDS011;64576;50.460;4.866;2023-05-23T04:01:12;63.10;;;24.95;;
75898;SDS011;64576;50.460;4.866;2023-05-23T04:03:38;58.78;;;24.73;;
75898;SDS011;64576;50.460;4.866;2023-05-23T04:06:03;53.80;;;23.70;;
75898;SDS011;64576;50.460;4.866;2023-05-23T04:08:29;51.42;;;23.38;;
75898;SDS011;64576;50.460;4.866;2023-05-23T04:10:58;60.67;;;23.30;;
75898;SDS011;64576;50.460;4.866;2023-05-23T04:13:25;56.88;;;24.00;;
75898;SDS011;64576;50.460;4.866;2023-05-23T04:15:51;65.13;;;24.90;;
75898;SDS011;64576;50.460;4.866;2023-05-23T04:18:16;51.67;;;22.80;;
75898;SDS011;64576;50.460;4.866;2023-05-23T04:20:42;52.38;;;23.85;;
75898;SDS011;64576;50.460;4.866;2023-05-23T04:23:07;53.80;;;22.02;;
75898;SDS011;64576;50.460;4.866;2023-05-23T04:25:32;59.50;;;25.42;;
75898;SDS011;64576;50.460;4.866;2023-05-23T04:27:58;45.85;;;22.02;;
75898;SDS011;64576;50.460;4.866;2023-05-23T04:30:25;46.03;;;23.20;;
75898;SDS011;64576;50.460;4.866;2023-05-23T04:32:50;48.00;;;20.98;;
75898;SDS011;64576;50.460;4.866;2023-05-23T04:35:16;49.60;;;20.98;;
75898;SDS011;64576;50.460;4.866;2023-05-23T04:37:41;50.22;;;21.83;;
75898;SDS011;64576;50.460;4.866;2023-05-23T04:40:07;47.58;;;21.60;;
75898;SDS011;64576;50.460;4.866;2023-05-23T04:42:33;40.72;;;20.42;;
75898;SDS011;64576;50.460;4.866;2023-05-23T04:44:58;47.90;;;23.83;;
75898;SDS011;64576;50.460;4.866;2023-05-23T04:47:23;47.72;;;20.42;;
75898;SDS011;64576;50.460;4.866;2023-05-23T04:49:52;39.33;;;20.30;;
75898;SDS011;64576;50.460;4.866;2023-05-23T04:52:17;49.45;;;21.38;;
75898;SDS011;64576;50.460;4.866;2023-05-23T04:54:43;44.28;;;18.67;;
75898;SDS011;64576;50.460;4.866;2023-05-23T04:57:10;40.05;;;18.17;;
75898;SDS011;64576;50.460;4.866;2023-05-23T04:59:36;46.40;;;19.40;;
75898;SDS011;64576;50.460;4.866;2023-05-23T05:02:02;39.55;;;16.90;;
75898;SDS011;64576;50.460;4.866;2023-05-23T05:04:27;35.78;;;18.38;;
75898;SDS011;64576;50.460;4.866;2023-05-23T05:06:53;37.58;;;20.48;;
75898;SDS011;64576;50.460;4.866;2023-05-23T05:09:18;36.22;;;17.92;;
75898;SDS011;64576;50.460;4.866;2023-05-23T05:11:44;37.40;;;18.20;;
75898;SDS011;64576;50.460;4.866;2023-05-23T05:14:10;36.00;;;16.75;;
75898;SDS011;64576;50.460;4.866;2023-05-23T05:16:35;30.73;;;16.08;;
75898;SDS011;64576;50.460;4.866;2023-05-23T05:19:01;37.20;;;17.92;;
75898;SDS011;64576;50.460;4.866;2023-05-23T05:21:27;32.35;;;15.05;;
75898;SDS011;64576;50.460;4.866;2023-05-23T05:23:52;35.33;;;18.52;;
75898;SDS011;64576;50.460;4.866;2023-05-23T05:26:18;33.83;;;15.43;;
75898;SDS011;64576;50.460;4.866;2023-05-23T05:28:43;40.25;;;17.13;;
75898;SDS011;64576;50.460;4.866;2023-05-23T05:31:09;33.60;;;15.77;;
75898;SDS011;64576;50.460;4.866;2023-05-23T05:33:39;36.20;;;18.00;;
75898;SDS011;64576;50.460;4.866;2023-05-23T05:36:05;42.20;;;16.98;;
75898;SDS011;64576;50.460;4.866;2023-05-23T05:38:31;36.92;;;18.00;;
75898;SDS011;64576;50.460;4.866;2023-05-23T05:40:56;38.45;;;16.58;;
75898;SDS011;64576;50.460;4.866;2023-05-23T05:43:22;43.40;;;19.77;;
75898;SDS011;64576;50.460;4.866;2023-05-23T05:45:47;38.72;;;18.67;;
75898;SDS011;64576;50.460;4.866;2023-05-23T05:48:13;46.38;;;18.52;;
75898;SDS011;64576;50.460;4.866;2023-05-23T05:50:38;42.15;;;18.10;;
75898;SDS011;64576;50.460;4.866;2023-05-23T05:53:03;40.78;;;18.02;;
75898;SDS011;64576;50.460;4.866;2023-05-23T05:55:29;41.33;;;17.08;;
75898;SDS011;64576;50.460;4.866;2023-05-23T05:57:54;35.15;;;16.38;;
75898;SDS011;64576;50.460;4.866;2023-05-23T06:00:20;35.70;;;14.73;;
75898;SDS011;64576;50.460;4.866;2023-05-23T06:02:45;37.80;;;15.90;;
75898;SDS011;64576;50.460;4.866;2023-05-23T06:05:11;33.25;;;14.95;;
75898;SDS011;64576;50.460;4.866;2023-05-23T06:07:40;33.58;;;16.48;;
75898;SDS011;64576;50.460;4.866;2023-05-23T06:10:06;34.20;;;14.55;;
75898;SDS011;64576;50.460;4.866;2023-05-23T06:12:32;29.77;;;14.43;;
75898;SDS011;64576;50.460;4.866;2023-05-23T06:15:00;29.85;;;14.35;;
75898;SDS011;64576;50.460;4.866;2023-05-23T06:17:26;33.67;;;15.73;;
75898;SDS011;64576;50.460;4.866;2023-05-23T06:19:52;31.08;;;13.95;;
75898;SDS011;64576;50.460;4.866;2023-05-23T06:22:17;27.00;;;13.23;;
75898;SDS011;64576;50.460;4.866;2023-05-23T06:24:42;28.27;;;13.50;;
75898;SDS011;64576;50.460;4.866;2023-05-23T06:27:08;31.23;;;12.95;;
75898;SDS011;64576;50.460;4.866;2023-05-23T06:29:33;28.60;;;13.77;;
75898;SDS011;64576;50.460;4.866;2023-05-23T06:32:00;36.72;;;13.95;;
75898;SDS011;64576;50.460;4.866;2023-05-23T06:34:26;29.17;;;13.35;;
75898;SDS011;64576;50.460;4.866;2023-05-23T06:36:51;30.35;;;13.73;;
75898;SDS011;64576;50.460;4.866;2023-05-23T06:39:17;27.75;;;13.15;;
75898;SDS011;64576;50.460;4.866;2023-05-23T06:41:42;27.85;;;13.98;;
75898;SDS011;64576;50.460;4.866;2023-05-23T06:44:08;32.65;;;14.75;;
75898;SDS011;64576;50.460;4.866;2023-05-23T06:46:33;35.35;;;14.52;;
75898;SDS011;64576;50.460;4.866;2023-05-23T06:48:58;34.28;;;15.32;;
75898;SDS011;64576;50.460;4.866;2023-05-23T06:51:24;35.17;;;16.83;;
75898;SDS011;64576;50.460;4.866;2023-05-23T06:53:49;35.67;;;16.70;;
75898;SDS011;64576;50.460;4.866;2023-05-23T06:56:14;30.98;;;15.23;;
75898;SDS011;64576;50.460;4.866;2023-05-23T06:58:40;29.88;;;15.40;;
75898;SDS011;64576;50.460;4.866;2023-05-23T07:01:05;35.25;;;14.95;;
75898;SDS011;64576;50.460;4.866;2023-05-23T07:03:31;35.47;;;16.27;;
75898;SDS011;64576;50.460;4.866;2023-05-23T07:05:57;28.85;;;14.00;;
75898;SDS011;64576;50.460;4.866;2023-05-23T07:08:22;31.35;;;14.02;;
75898;SDS011;64576;50.460;4.866;2023-05-23T07:10:51;35.42;;;17.40;;
75898;SDS011;64576;50.460;4.866;2023-05-23T07:13:17;37.35;;;15.43;;
75898;SDS011;64576;50.460;4.866;2023-05-23T07:15:42;28.10;;;15.27;;
75898;SDS011;64576;50.460;4.866;2023-05-23T07:18:07;31.02;;;14.75;;
75898;SDS011;64576;50.460;4.866;2023-05-23T07:20:33;27.67;;;13.27;;
75898;SDS011;64576;50.460;4.866;2023-05-23T07:22:58;31.42;;;13.20;;
75898;SDS011;64576;50.460;4.866;2023-05-23T07:25:24;32.50;;;16.23;;
75898;SDS011;64576;50.460;4.866;2023-05-23T07:27:50;33.22;;;15.57;;
75898;SDS011;64576;50.460;4.866;2023-05-23T07:30:18;33.78;;;15.30;;
75898;SDS011;64576;50.460;4.866;2023-05-23T07:32:45;31.73;;;13.88;;
75898;SDS011;64576;50.460;4.866;2023-05-23T07:35:12;35.20;;;15.75;;
75898;SDS011;64576;50.460;4.866;2023-05-23T07:37:37;31.23;;;15.05;;
75898;SDS011;64576;50.460;4.866;2023-05-23T07:40:03;39.53;;;17.05;;
75898;SDS011;64576;50.460;4.866;2023-05-23T07:42:29;31.92;;;16.08;;
75898;SDS011;64576;50.460;4.866;2023-05-23T07:44:55;28.33;;;14.48;;
75898;SDS011;64576;50.460;4.866;2023-05-23T07:47:20;30.70;;;15.60;;
75898;SDS011;64576;50.460;4.866;2023-05-23T07:49:45;32.83;;;17.15;;
75898;SDS011;64576;50.460;4.866;2023-05-23T07:52:11;36.95;;;16.88;;
75898;SDS011;64576;50.460;4.866;2023-05-23T07:54:37;42.50;;;18.75;;
75898;SDS011;64576;50.460;4.866;2023-05-23T07:57:02;40.83;;;17.60;;
75898;SDS011;64576;50.460;4.866;2023-05-23T07:59:28;44.17;;;17.15;;
75898;SDS011;64576;50.460;4.866;2023-05-23T08:01:54;35.03;;;18.02;;
75898;SDS011;64576;50.460;4.866;2023-05-23T08:04:19;44.08;;;20.65;;
75898;SDS011;64576;50.460;4.866;2023-05-23T08:06:45;41.53;;;19.35;;
75898;SDS011;64576;50.460;4.866;2023-05-23T08:09:11;43.72;;;19.67;;
75898;SDS011;64576;50.460;4.866;2023-05-23T08:11:37;48.15;;;20.23;;
75898;SDS011;64576;50.460;4.866;2023-05-23T08:14:02;43.03;;;19.10;;
75898;SDS011;64576;50.460;4.866;2023-05-23T08:16:28;39.67;;;17.83;;
75898;SDS011;64576;50.460;4.866;2023-05-23T08:18:53;35.75;;;16.55;;
75898;SDS011;64576;50.460;4.866;2023-05-23T08:21:18;38.40;;;18.27;;
75898;SDS011;64576;50.460;4.866;2023-05-23T08:23:44;26.60;;;14.35;;
75898;SDS011;64576;50.460;4.866;2023-05-23T08:26:09;34.60;;;15.80;;
75898;SDS011;64576;50.460;4.866;2023-05-23T08:28:34;28.80;;;13.45;;
75898;SDS011;64576;50.460;4.866;2023-05-23T08:31:00;30.23;;;12.60;;
75898;SDS011;64576;50.460;4.866;2023-05-23T08:33:25;32.78;;;13.00;;
75898;SDS011;64576;50.460;4.866;2023-05-23T08:35:51;31.70;;;13.10;;
75898;SDS011;64576;50.460;4.866;2023-05-23T08:38:16;31.17;;;14.88;;
75898;SDS011;64576;50.460;4.866;2023-05-23T08:40:48;28.92;;;13.48;;
75898;SDS011;64576;50.460;4.866;2023-05-23T08:43:17;31.65;;;12.35;;
75898;SDS011;64576;50.460;4.866;2023-05-23T08:45:43;30.02;;;12.15;;
75898;SDS011;64576;50.460;4.866;2023-05-23T08:48:11;26.33;;;12.98;;
75898;SDS011;64576;50.460;4.866;2023-05-23T08:50:38;28.20;;;10.80;;
75898;SDS011;64576;50.460;4.866;2023-05-23T08:53:05;31.50;;;10.98;;
75898;SDS011;64576;50.460;4.866;2023-05-23T08:55:33;33.38;;;12.30;;
75898;SDS011;64576;50.460;4.866;2023-05-23T08:57:59;27.17;;;11.23;;
75898;SDS011;64576;50.460;4.866;2023-05-23T09:00:25;22.40;;;9.57;;
75898;SDS011;64576;50.460;4.866;2023-05-23T09:02:52;23.02;;;9.43;;
75898;SDS011;64576;50.460;4.866;2023-05-23T09:05:18;19.08;;;8.90;;
75898;SDS011;64576;50.460;4.866;2023-05-23T09:07:44;26.13;;;10.60;;
75898;SDS011;64576;50.460;4.866;2023-05-23T09:10:15;18.60;;;9.45;;
75898;SDS011;64576;50.460;4.866;2023-05-23T09:12:43;24.17;;;9.38;;
75898;SDS011;64576;50.460;4.866;2023-05-23T09:15:09;19.17;;;8.25;;
75898;SDS011;64576;50.460;4.866;2023-05-23T09:17:36;15.50;;;7.40;;
75898;SDS011;64576;50.460;4.866;2023-05-23T09:20:02;11.60;;;6.60;;
75898;SDS011;64576;50.460;4.866;2023-05-23T09:22:34;15.40;;;7.40;;
75898;SDS011;64576;50.460;4.866;2023-05-23T09:24:59;16.65;;;7.72;;
75898;SDS011;64576;50.460;4.866;2023-05-23T09:27:25;17.08;;;7.35;;
75898;SDS011;64576;50.460;4.866;2023-05-23T09:29:51;17.42;;;8.93;;
75898;SDS011;64576;50.460;4.866;2023-05-23T09:32:17;20.00;;;7.43;;
75898;SDS011;64576;50.460;4.866;2023-05-23T09:37:23;16.08;;;7.63;;
75898;SDS011;64576;50.460;4.866;2023-05-23T09:39:53;21.53;;;7.67;;
75898;SDS011;64576;50.460;4.866;2023-05-23T09:42:19;19.27;;;7.80;;
75898;SDS011;64576;50.460;4.866;2023-05-23T09:44:46;17.73;;;7.32;;
75898;SDS011;64576;50.460;4.866;2023-05-23T09:47:11;22.30;;;7.68;;
75898;SDS011;64576;50.460;4.866;2023-05-23T09:49:37;19.17;;;8.40;;
75898;SDS011;64576;50.460;4.866;2023-05-23T09:52:04;20.00;;;7.72;;
75898;SDS011;64576;50.460;4.866;2023-05-23T09:54:29;17.33;;;7.85;;
75898;SDS011;64576;50.460;4.866;2023-05-23T09:56:55;22.05;;;8.07;;
75898;SDS011;64576;50.460;4.866;2023-05-23T09:59:25;20.33;;;7.70;;
75898;SDS011;64576;50.460;4.866;2023-05-23T10:01:52;17.45;;;8.77;;
75898;SDS011;64576;50.460;4.866;2023-05-23T10:04:21;21.70;;;7.93;;
75898;SDS011;64576;50.460;4.866;2023-05-23T10:06:56;18.02;;;8.73;;
75898;SDS011;64576;50.460;4.866;2023-05-23T10:09:25;14.50;;;7.75;;
75898;SDS011;64576;50.460;4.866;2023-05-23T10:14:44;23.42;;;9.48;;
75898;SDS011;64576;50.460;4.866;2023-05-23T10:19:47;16.77;;;7.60;;
75898;SDS011;64576;50.460;4.866;2023-05-23T10:22:23;15.77;;;8.02;;
75898;SDS011;64576;50.460;4.866;2023-05-23T10:24:50;18.33;;;8.40;;
75898;SDS011;64576;50.460;4.866;2023-05-23T10:27:15;14.73;;;8.20;;
75898;SDS011;64576;50.460;4.866;2023-05-23T10:29:41;20.48;;;8.60;;
75898;SDS011;64576;50.460;4.866;2023-05-23T10:32:07;16.10;;;8.30;;
75898;SDS011;64576;50.460;4.866;2023-05-23T10:34:39;18.08;;;8.73;;
75898;SDS011;64576;50.460;4.866;2023-05-23T10:37:15;16.67;;;8.45;;
75898;SDS011;64576;50.460;4.866;2023-05-23T10:45:16;18.80;;;9.82;;
75898;SDS011;64576;50.460;4.866;2023-05-23T10:47:45;22.77;;;10.15;;
75898;SDS011;64576;50.460;4.866;2023-05-23T10:50:13;21.10;;;10.00;;
75898;SDS011;64576;50.460;4.866;2023-05-23T10:52:54;27.08;;;10.50;;
75898;SDS011;64576;50.460;4.866;2023-05-23T10:55:20;20.38;;;9.52;;
75898;SDS011;64576;50.460;4.866;2023-05-23T10:57:46;21.30;;;10.93;;
75898;SDS011;64576;50.460;4.866;2023-05-23T11:00:35;20.52;;;10.05;;
75898;SDS011;64576;50.460;4.866;2023-05-23T11:03:03;25.02;;;10.88;;
75898;SDS011;64576;50.460;4.866;2023-05-23T11:05:32;25.98;;;10.93;;
75898;SDS011;64576;50.460;4.866;2023-05-23T11:08:06;29.15;;;11.45;;
75898;SDS011;64576;50.460;4.866;2023-05-23T11:10:38;23.67;;;9.82;;
75898;SDS011;64576;50.460;4.866;2023-05-23T11:13:16;27.88;;;11.55;;
75898;SDS011;64576;50.460;4.866;2023-05-23T11:15:41;22.70;;;11.32;;
75898;SDS011;64576;50.460;4.866;2023-05-23T11:18:09;25.80;;;11.60;;
75898;SDS011;64576;50.460;4.866;2023-05-23T11:41:16;26.35;;;9.80;;
75898;SDS011;64576;50.460;4.866;2023-05-23T11:43:50;27.98;;;9.68;;
75898;SDS011;64576;50.460;4.866;2023-05-23T11:46:16;21.70;;;9.02;;
75898;SDS011;64576;50.460;4.866;2023-05-23T11:48:46;23.10;;;8.30;;
75898;SDS011;64576;50.460;4.866;2023-05-23T11:51:13;19.73;;;8.18;;
75898;SDS011;64576;50.460;4.866;2023-05-23T11:53:39;17.10;;;8.85;;
75898;SDS011;64576;50.460;4.866;2023-05-23T11:56:05;20.83;;;9.40;;
75898;SDS011;64576;50.460;4.866;2023-05-23T11:58:33;21.67;;;9.93;;
75898;SDS011;64576;50.460;4.866;2023-05-23T12:01:00;17.65;;;8.35;;
75898;SDS011;64576;50.460;4.866;2023-05-23T12:03:27;16.27;;;8.23;;
75898;SDS011;64576;50.460;4.866;2023-05-23T12:05:56;19.50;;;7.25;;
75898;SDS011;64576;50.460;4.866;2023-05-23T12:08:23;18.95;;;8.63;;
75898;SDS011;64576;50.460;4.866;2023-05-23T12:10:56;23.17;;;8.88;;
75898;SDS011;64576;50.460;4.866;2023-05-23T12:13:23;19.92;;;7.38;;
75898;SDS011;64576;50.460;4.866;2023-05-23T12:15:52;23.63;;;8.05;;
75898;SDS011;64576;50.460;4.866;2023-05-23T12:18:19;21.27;;;8.75;;
75898;SDS011;64576;50.460;4.866;2023-05-23T12:20:47;18.90;;;7.78;;
75898;SDS011;64576;50.460;4.866;2023-05-23T12:23:24;15.35;;;7.22;;
75898;SDS011;64576;50.460;4.866;2023-05-23T12:25:52;16.90;;;8.40;;
75898;SDS011;64576;50.460;4.866;2023-05-23T12:28:19;19.60;;;7.85;;
75898;SDS011;64576;50.460;4.866;2023-05-23T12:30:45;16.48;;;8.70;;
75898;SDS011;64576;50.460;4.866;2023-05-23T12:33:11;18.92;;;7.45;;
75898;SDS011;64576;50.460;4.866;2023-05-23T12:35:39;17.17;;;9.07;;
75898;SDS011;64576;50.460;4.866;2023-05-23T12:38:08;16.45;;;8.40;;
75898;SDS011;64576;50.460;4.866;2023-05-23T12:40:34;20.38;;;9.38;;
75898;SDS011;64576;50.460;4.866;2023-05-23T12:42:59;15.57;;;7.75;;
75898;SDS011;64576;50.460;4.866;2023-05-23T12:45:32;13.85;;;7.43;;
75898;SDS011;64576;50.460;4.866;2023-05-23T12:48:00;17.27;;;8.57;;
75898;SDS011;64576;50.460;4.866;2023-05-23T12:50:26;13.35;;;6.95;;
75898;SDS011;64576;50.460;4.866;2023-05-23T12:52:52;20.58;;;9.43;;
75898;SDS011;64576;50.460;4.866;2023-05-23T12:55:17;18.00;;;10.48;;
75898;SDS011;64576;50.460;4.866;2023-05-23T12:57:43;16.00;;;7.90;;
75898;SDS011;64576;50.460;4.866;2023-05-23T13:00:08;19.25;;;9.13;;
75898;SDS011;64576;50.460;4.866;2023-05-23T13:02:35;17.33;;;10.63;;
75898;SDS011;64576;50.460;4.866;2023-05-23T13:05:01;20.35;;;8.43;;
75898;SDS011;64576;50.460;4.866;2023-05-23T13:07:26;12.70;;;7.28;;
75898;SDS011;64576;50.460;4.866;2023-05-23T13:09:52;21.08;;;9.15;;
75898;SDS011;64576;50.460;4.866;2023-05-23T13:12:17;17.00;;;7.97;;
75898;SDS011;64576;50.460;4.866;2023-05-23T13:14:43;23.33;;;9.50;;
75898;SDS011;64576;50.460;4.866;2023-05-23T13:17:08;15.00;;;9.50;;
75898;SDS011;64576;50.460;4.866;2023-05-23T13:19:34;18.33;;;9.85;;
75898;SDS011;64576;50.460;4.866;2023-05-23T13:22:00;17.77;;;8.20;;
75898;SDS011;64576;50.460;4.866;2023-05-23T13:24:28;18.42;;;7.90;;
75898;SDS011;64576;50.460;4.866;2023-05-23T13:26:53;17.70;;;9.27;;
75898;SDS011;64576;50.460;4.866;2023-05-23T13:29:19;18.75;;;8.73;;
75898;SDS011;64576;50.460;4.866;2023-05-23T13:31:44;16.38;;;7.70;;
75898;SDS011;64576;50.460;4.866;2023-05-23T13:34:10;16.80;;;7.50;;
75898;SDS011;64576;50.460;4.866;2023-05-23T13:36:35;15.15;;;7.93;;
75898;SDS011;64576;50.460;4.866;2023-05-23T13:39:01;16.45;;;7.00;;
75898;SDS011;64576;50.460;4.866;2023-05-23T13:41:27;14.35;;;6.90;;
75898;SDS011;64576;50.460;4.866;2023-05-23T13:43:53;16.13;;;7.25;;
75898;SDS011;64576;50.460;4.866;2023-05-23T13:46:18;13.55;;;7.28;;
75898;SDS011;64576;50.460;4.866;2023-05-23T13:48:43;17.20;;;6.88;;
75898;SDS011;64576;50.460;4.866;2023-05-23T13:51:09;12.73;;;6.47;;
75898;SDS011;64576;50.460;4.866;2023-05-23T13:53:34;19.15;;;7.70;;
75898;SDS011;64576;50.460;4.866;2023-05-23T13:56:00;19.73;;;6.68;;
75898;SDS011;64576;50.460;4.866;2023-05-23T13:58:25;14.45;;;6.18;;
75898;SDS011;64576;50.460;4.866;2023-05-23T14:00:51;17.58;;;6.90;;
75898;SDS011;64576;50.460;4.866;2023-05-23T14:03:17;10.82;;;6.13;;
75898;SDS011;64576;50.460;4.866;2023-05-23T14:05:43;15.90;;;6.78;;
75898;SDS011;64576;50.460;4.866;2023-05-23T14:08:09;15.57;;;6.53;;
75898;SDS011;64576;50.460;4.866;2023-05-23T14:10:35;17.90;;;6.10;;
75898;SDS011;64576;50.460;4.866;2023-05-23T14:13:01;11.77;;;5.72;;
75898;SDS011;64576;50.460;4.866;2023-05-23T14:15:26;17.13;;;6.70;;
75898;SDS011;64576;50.460;4.866;2023-05-23T14:17:52;18.67;;;6.20;;
75898;SDS011;64576;50.460;4.866;2023-05-23T14:20:20;16.02;;;6.10;;
75898;SDS011;64576;50.460;4.866;2023-05-23T14:22:46;11.63;;;6.50;;
75898;SDS011;64576;50.460;4.866;2023-05-23T14:25:12;13.82;;;6.38;;
75898;SDS011;64576;50.460;4.866;2023-05-23T14:27:38;13.43;;;6.05;;
75898;SDS011;64576;50.460;4.866;2023-05-23T14:30:04;16.98;;;6.38;;
75898;SDS011;64576;50.460;4.866;2023-05-23T14:32:30;12.95;;;5.90;;
75898;SDS011;64576;50.460;4.866;2023-05-23T14:35:02;14.88;;;6.40;;
75898;SDS011;64576;50.460;4.866;2023-05-23T14:37:33;15.23;;;6.35;;
75898;SDS011;64576;50.460;4.866;2023-05-23T14:39:58;15.75;;;6.90;;
75898;SDS011;64576;50.460;4.866;2023-05-23T14:42:23;18.35;;;6.68;;
75898;SDS011;64576;50.460;4.866;2023-05-23T14:44:49;16.23;;;8.07;;
75898;SDS011;64576;50.460;4.866;2023-05-23T14:47:16;13.20;;;6.40;;
75898;SDS011;64576;50.460;4.866;2023-05-23T14:49:41;16.42;;;6.00;;
75898;SDS011;64576;50.460;4.866;2023-05-23T14:52:06;21.30;;;7.45;;
75898;SDS011;64576;50.460;4.866;2023-05-23T14:54:32;16.00;;;6.75;;
75898;SDS011;64576;50.460;4.866;2023-05-23T14:56:58;13.05;;;5.45;;
75898;SDS011;64576;50.460;4.866;2023-05-23T14:59:23;17.40;;;6.03;;
75898;SDS011;64576;50.460;4.866;2023-05-23T15:01:49;15.50;;;6.63;;